sensor_id;sensor_type;location;lat;lon;timestamp;pressure;altitude;pressure_sealevel;temperature;humidity
4972;BME280;2501;51.214;6.768;2023-05-25T00:02:29;102161.81;;;11.02;88.57
4972;BME280;2501;51.214;6.768;2023-05-25T00:04:57;102154.78;;;11.01;88.44
4972;BME280;2501;51.214;6.768;2023-05-25T00:07:26;102159.19;;;10.69;88.98
4972;BME280;2501;51.214;6.768;2023-05-25T00:09:55;102158.09;;;10.94;89.42
4972;BME280;2501;51.214;6.768;2023-05-25T00:12:23;102157.25;;;10.63;89.72
4972;BME280;2501;51.214;6.768;2023-05-25T00:14:51;102161.44;;;10.57;90.73
4972;BME280;2501;51.214;6.768;2023-05-25T00:17:23;102152.75;;;10.89;89.64
4972;BME280;2501;51.214;6.768;2023-05-25T00:19:56;102151.34;;;10.70;86.99
4972;BME280;2501;51.214;6.768;2023-05-25T00:22:27;102150.94;;;10.57;87.45
4972;BME280;2501;51.214;6.768;2023-05-25T00:24:55;102156.75;;;10.45;87.60
4972;BME280;2501;51.214;6.768;2023-05-25T00:27:23;102162.06;;;10.48;87.56
4972;BME280;2501;51.214;6.768;2023-05-25T00:29:52;102156.28;;;11.26;86.09
4972;BME280;2501;51.214;6.768;2023-05-25T00:32:23;102156.28;;;11.24;83.75
4972;BME280;2501;51.214;6.768;2023-05-25T00:34:52;102151.28;;;11.35;82.12
4972;BME280;2501;51.214;6.768;2023-05-25T00:37:21;102145.28;;;11.39;81.47
4972;BME280;2501;51.214;6.768;2023-05-25T00:39:49;102148.50;;;11.29;81.37
4972;BME280;2501;51.214;6.768;2023-05-25T00:42:18;102144.56;;;11.11;81.68
4972;BME280;2501;51.214;6.768;2023-05-25T00:44:47;102144.41;;;11.05;81.74
4972;BME280;2501;51.214;6.768;2023-05-25T00:47:15;102140.03;;;11.04;81.90
4972;BME280;2501;51.214;6.768;2023-05-25T00:49:47;102148.59;;;10.99;82.41
4972;BME280;2501;51.214;6.768;2023-05-25T00:52:15;102143.41;;;11.00;82.90
4972;BME280;2501;51.214;6.768;2023-05-25T00:54:47;102148.13;;;10.80;84.06
4972;BME280;2501;51.214;6.768;2023-05-25T00:57:19;102142.81;;;10.48;86.88
4972;BME280;2501;51.214;6.768;2023-05-25T00:59:52;102149.56;;;10.38;88.78
4972;BME280;2501;51.214;6.768;2023-05-25T01:02:22;102158.22;;;10.35;89.70
4972;BME280;2501;51.214;6.768;2023-05-25T01:04:55;102149.66;;;10.74;88.98
4972;BME280;2501;51.214;6.768;2023-05-25T01:07:26;102151.16;;;10.96;86.54
4972;BME280;2501;51.214;6.768;2023-05-25T01:09:57;102152.84;;;10.94;86.05
4972;BME280;2501;51.214;6.768;2023-05-25T01:12:28;102156.69;;;10.75;86.51
4972;BME280;2501;51.214;6.768;2023-05-25T01:14:57;102159.59;;;10.84;87.25
4972;BME280;2501;51.214;6.768;2023-05-25T01:17:27;102160.56;;;10.56;88.45
4972;BME280;2501;51.214;6.768;2023-05-25T01:19:59;102167.03;;;10.37;89.74
4972;BME280;2501;51.214;6.768;2023-05-25T01:22:34;102163.94;;;10.52;90.46
4972;BME280;2501;51.214;6.768;2023-05-25T01:25:08;102165.00;;;10.59;91.13
4972;BME280;2501;51.214;6.768;2023-05-25T01:27:43;102165.72;;;10.53;91.77
4972;BME280;2501;51.214;6.768;2023-05-25T01:30:15;102175.00;;;10.42;91.86
4972;BME280;2501;51.214;6.768;2023-05-25T01:32:44;102169.25;;;10.54;92.14
4972;BME280;2501;51.214;6.768;2023-05-25T01:35:14;102160.47;;;10.53;92.24
4972;BME280;2501;51.214;6.768;2023-05-25T01:37:47;102174.22;;;10.44;92.75
4972;BME280;2501;51.214;6.768;2023-05-25T01:40:16;102173.81;;;10.31;93.42
4972;BME280;2501;51.214;6.768;2023-05-25T01:42:45;102180.50;;;10.20;93.65
4972;BME280;2501;51.214;6.768;2023-05-25T01:45:14;102176.13;;;9.93;94.82
4972;BME280;2501;51.214;6.768;2023-05-25T01:47:46;102175.41;;;10.26;95.12
4972;BME280;2501;51.214;6.768;2023-05-25T01:50:25;102176.75;;;10.41;94.14
4972;BME280;2501;51.214;6.768;2023-05-25T01:53:02;102175.34;;;10.53;93.34
4972;BME280;2501;51.214;6.768;2023-05-25T01:55:36;102178.53;;;10.42;93.20
4972;BME280;2501;51.214;6.768;2023-05-25T01:58:07;102180.97;;;10.36;93.21
4972;BME280;2501;51.214;6.768;2023-05-25T02:00:37;102163.78;;;10.46;92.93
4972;BME280;2501;51.214;6.768;2023-05-25T02:03:07;102170.00;;;10.50;92.46
4972;BME280;2501;51.214;6.768;2023-05-25T02:05:37;102173.56;;;10.23;92.57
4972;BME280;2501;51.214;6.768;2023-05-25T02:08:08;102170.56;;;10.39;92.74
4972;BME280;2501;51.214;6.768;2023-05-25T02:10:36;102166.16;;;10.68;92.07
4972;BME280;2501;51.214;6.768;2023-05-25T02:13:05;102169.59;;;10.66;91.02
4972;BME280;2501;51.214;6.768;2023-05-25T02:15:33;102170.97;;;10.53;91.13
4972;BME280;2501;51.214;6.768;2023-05-25T02:18:02;102159.69;;;10.56;90.58
4972;BME280;2501;51.214;6.768;2023-05-25T02:20:30;102170.69;;;10.44;90.32
4972;BME280;2501;51.214;6.768;2023-05-25T02:22:59;102172.47;;;10.45;89.56
4972;BME280;2501;51.214;6.768;2023-05-25T02:25:30;102174.97;;;10.40;88.97
4972;BME280;2501;51.214;6.768;2023-05-25T02:27:58;102178.38;;;10.36;88.89
4972;BME280;2501;51.214;6.768;2023-05-25T02:30:27;102176.69;;;10.38;89.48
4972;BME280;2501;51.214;6.768;2023-05-25T02:32:55;102180.69;;;10.27;90.31
4972;BME280;2501;51.214;6.768;2023-05-25T02:35:26;102175.59;;;10.03;91.13
4972;BME280;2501;51.214;6.768;2023-05-25T02:37:55;102174.66;;;10.30;90.72
4972;BME280;2501;51.214;6.768;2023-05-25T02:40:23;102181.63;;;10.29;90.45
4972;BME280;2501;51.214;6.768;2023-05-25T02:42:54;102181.38;;;10.22;91.43
4972;BME280;2501;51.214;6.768;2023-05-25T02:45:23;102173.75;;;10.01;92.19
4972;BME280;2501;51.214;6.768;2023-05-25T02:47:51;102179.31;;;9.83;92.95
4972;BME280;2501;51.214;6.768;2023-05-25T02:50:19;102184.53;;;9.56;94.11
4972;BME280;2501;51.214;6.768;2023-05-25T02:52:48;102187.72;;;9.46;94.83
4972;BME280;2501;51.214;6.768;2023-05-25T02:55:16;102193.47;;;9.36;95.39
4972;BME280;2501;51.214;6.768;2023-05-25T02:57:45;102198.28;;;9.24;96.38
4972;BME280;2501;51.214;6.768;2023-05-25T03:00:17;102202.06;;;9.06;97.18
4972;BME280;2501;51.214;6.768;2023-05-25T03:02:45;102200.16;;;9.02;98.19
4972;BME280;2501;51.214;6.768;2023-05-25T03:05:14;102203.66;;;8.78;99.59
4972;BME280;2501;51.214;6.768;2023-05-25T03:07:43;102204.84;;;8.87;100.00
4972;BME280;2501;51.214;6.768;2023-05-25T03:10:12;102198.94;;;8.93;100.00
4972;BME280;2501;51.214;6.768;2023-05-25T03:12:40;102206.88;;;8.94;100.00
4972;BME280;2501;51.214;6.768;2023-05-25T03:15:09;102202.69;;;8.99;100.00
4972;BME280;2501;51.214;6.768;2023-05-25T03:17:41;102207.34;;;9.08;100.00
4972;BME280;2501;51.214;6.768;2023-05-25T03:20:10;102212.81;;;9.14;100.00
4972;BME280;2501;51.214;6.768;2023-05-25T03:22:40;102210.75;;;9.05;100.00
4972;BME280;2501;51.214;6.768;2023-05-25T03:25:09;102214.63;;;9.17;100.00
4972;BME280;2501;51.214;6.768;2023-05-25T03:27:38;102212.91;;;9.17;100.00
4972;BME280;2501;51.214;6.768;2023-05-25T03:30:08;102216.50;;;9.21;100.00
4972;BME280;2501;51.214;6.768;2023-05-25T03:32:36;102215.94;;;9.29;100.00
4972;BME280;2501;51.214;6.768;2023-05-25T03:35:08;102209.78;;;9.03;100.00
4972;BME280;2501;51.214;6.768;2023-05-25T03:37:36;102207.94;;;9.25;100.00
4972;BME280;2501;51.214;6.768;2023-05-25T03:40:06;102212.47;;;9.05;100.00
4972;BME280;2501;51.214;6.768;2023-05-25T03:42:36;102208.66;;;9.21;100.00
4972;BME280;2501;51.214;6.768;2023-05-25T03:45:06;102209.28;;;9.39;99.96
4972;BME280;2501;51.214;6.768;2023-05-25T03:47:35;102211.75;;;9.34;99.63
4972;BME280;2501;51.214;6.768;2023-05-25T03:50:07;102214.00;;;9.49;99.00
4972;BME280;2501;51.214;6.768;2023-05-25T03:52:35;102207.66;;;9.42;98.92
4972;BME280;2501;51.214;6.768;2023-05-25T03:55:04;102210.56;;;9.50;98.48
4972;BME280;2501;51.214;6.768;2023-05-25T03:57:33;102222.81;;;9.51;98.40
4972;BME280;2501;51.214;6.768;2023-05-25T04:00:01;102222.25;;;9.61;97.95
4972;BME280;2501;51.214;6.768;2023-05-25T04:02:30;102227.50;;;9.36;98.18
4972;BME280;2501;51.214;6.768;2023-05-25T04:04:59;102236.88;;;9.55;97.88
4972;BME280;2501;51.214;6.768;2023-05-25T04:07:30;102235.06;;;9.52;98.39
4972;BME280;2501;51.214;6.768;2023-05-25T04:09:58;102232.63;;;9.58;97.81
4972;BME280;2501;51.214;6.768;2023-05-25T04:12:26;102237.97;;;9.61;97.53
4972;BME280;2501;51.214;6.768;2023-05-25T04:14:55;102238.81;;;9.60;97.69
4972;BME280;2501;51.214;6.768;2023-05-25T04:17:23;102241.53;;;9.38;97.68
4972;BME280;2501;51.214;6.768;2023-05-25T04:19:52;102241.22;;;9.54;97.81
4972;BME280;2501;51.214;6.768;2023-05-25T04:22:21;102243.22;;;9.61;97.69
4972;BME280;2501;51.214;6.768;2023-05-25T04:24:52;102248.38;;;9.33;97.99
4972;BME280;2501;51.214;6.768;2023-05-25T04:27:20;102252.28;;;9.46;98.59
4972;BME280;2501;51.214;6.768;2023-05-25T04:29:50;102251.13;;;9.63;97.91
4972;BME280;2501;51.214;6.768;2023-05-25T04:32:20;102253.75;;;9.63;98.02
4972;BME280;2501;51.214;6.768;2023-05-25T04:34:49;102260.19;;;9.47;98.49
4972;BME280;2501;51.214;6.768;2023-05-25T04:37:18;102263.53;;;9.43;98.88
4972;BME280;2501;51.214;6.768;2023-05-25T04:39:54;102265.84;;;9.34;99.17
4972;BME280;2501;51.214;6.768;2023-05-25T04:42:22;102261.53;;;9.36;99.67
4972;BME280;2501;51.214;6.768;2023-05-25T04:44:51;102265.03;;;9.35;99.93
4972;BME280;2501;51.214;6.768;2023-05-25T04:47:20;102263.75;;;9.24;100.00
4972;BME280;2501;51.214;6.768;2023-05-25T04:49:49;102265.94;;;9.37;100.00
4972;BME280;2501;51.214;6.768;2023-05-25T04:52:17;102267.91;;;9.42;100.00
4972;BME280;2501;51.214;6.768;2023-05-25T04:54:46;102274.81;;;9.40;100.00
4972;BME280;2501;51.214;6.768;2023-05-25T04:57:17;102269.41;;;9.36;100.00
4972;BME280;2501;51.214;6.768;2023-05-25T04:59:45;102274.38;;;9.54;100.00
4972;BME280;2501;51.214;6.768;2023-05-25T05:02:14;102278.84;;;9.56;100.00
4972;BME280;2501;51.214;6.768;2023-05-25T05:04:42;102284.06;;;9.82;99.62
4972;BME280;2501;51.214;6.768;2023-05-25T05:07:10;102278.13;;;9.87;99.10
4972;BME280;2501;51.214;6.768;2023-05-25T05:09:39;102278.56;;;9.74;98.61
4972;BME280;2501;51.214;6.768;2023-05-25T05:12:08;102285.63;;;10.02;97.64
4972;BME280;2501;51.214;6.768;2023-05-25T05:14:39;102282.94;;;10.00;97.37
4972;BME280;2501;51.214;6.768;2023-05-25T05:17:07;102283.50;;;10.17;97.25
4972;BME280;2501;51.214;6.768;2023-05-25T05:19:38;102279.34;;;10.24;97.14
4972;BME280;2501;51.214;6.768;2023-05-25T05:22:07;102280.41;;;10.29;96.04
4972;BME280;2501;51.214;6.768;2023-05-25T05:24:37;102283.78;;;10.53;94.70
4972;BME280;2501;51.214;6.768;2023-05-25T05:27:06;102302.88;;;10.49;94.04
4972;BME280;2501;51.214;6.768;2023-05-25T05:29:35;102300.19;;;10.76;93.25
4972;BME280;2501;51.214;6.768;2023-05-25T05:32:06;102300.38;;;10.82;92.38
4972;BME280;2501;51.214;6.768;2023-05-25T05:34:34;102310.00;;;10.81;92.44
4972;BME280;2501;51.214;6.768;2023-05-25T05:37:03;102312.44;;;10.75;92.41
4972;BME280;2501;51.214;6.768;2023-05-25T05:39:32;102313.25;;;10.73;92.67
4972;BME280;2501;51.214;6.768;2023-05-25T05:42:00;102308.75;;;10.69;93.08
4972;BME280;2501;51.214;6.768;2023-05-25T05:44:29;102314.75;;;10.65;93.12
4972;BME280;2501;51.214;6.768;2023-05-25T05:46:57;102306.63;;;10.86;92.84
4972;BME280;2501;51.214;6.768;2023-05-25T05:49:30;102314.75;;;10.95;92.62
4972;BME280;2501;51.214;6.768;2023-05-25T05:51:59;102311.59;;;10.76;92.90
4972;BME280;2501;51.214;6.768;2023-05-25T05:54:27;102325.59;;;10.77;93.21
4972;BME280;2501;51.214;6.768;2023-05-25T05:57:03;102310.69;;;10.76;93.48
4972;BME280;2501;51.214;6.768;2023-05-25T05:59:40;102322.88;;;10.74;93.23
4972;BME280;2501;51.214;6.768;2023-05-25T06:02:08;102323.91;;;10.79;93.41
4972;BME280;2501;51.214;6.768;2023-05-25T06:04:39;102330.28;;;10.87;93.28
4972;BME280;2501;51.214;6.768;2023-05-25T06:07:08;102327.88;;;10.95;93.14
4972;BME280;2501;51.214;6.768;2023-05-25T06:09:36;102332.72;;;10.81;92.96
4972;BME280;2501;51.214;6.768;2023-05-25T06:12:05;102326.28;;;11.00;92.96
4972;BME280;2501;51.214;6.768;2023-05-25T06:14:34;102331.28;;;11.21;92.09
4972;BME280;2501;51.214;6.768;2023-05-25T06:17:03;102334.91;;;11.26;91.34
4972;BME280;2501;51.214;6.768;2023-05-25T06:19:31;102336.75;;;11.30;90.66
4972;BME280;2501;51.214;6.768;2023-05-25T06:22:02;102337.28;;;11.48;90.12
4972;BME280;2501;51.214;6.768;2023-05-25T06:24:30;102340.41;;;11.35;89.11
4972;BME280;2501;51.214;6.768;2023-05-25T06:26:59;102340.38;;;11.65;88.67
4972;BME280;2501;51.214;6.768;2023-05-25T06:29:28;102334.75;;;11.51;87.84
4972;BME280;2501;51.214;6.768;2023-05-25T06:31:56;102338.63;;;11.34;88.17
4972;BME280;2501;51.214;6.768;2023-05-25T06:34:25;102332.81;;;11.45;88.79
4972;BME280;2501;51.214;6.768;2023-05-25T06:36:53;102337.91;;;11.71;87.53
4972;BME280;2501;51.214;6.768;2023-05-25T06:39:24;102332.59;;;11.69;86.95
4972;BME280;2501;51.214;6.768;2023-05-25T06:41:53;102341.19;;;11.94;86.64
4972;BME280;2501;51.214;6.768;2023-05-25T06:44:21;102338.59;;;11.64;86.18
4972;BME280;2501;51.214;6.768;2023-05-25T06:46:50;102344.31;;;12.15;85.38
4972;BME280;2501;51.214;6.768;2023-05-25T06:49:29;102339.50;;;11.97;84.85
4972;BME280;2501;51.214;6.768;2023-05-25T06:51:58;102347.53;;;12.03;84.86
4972;BME280;2501;51.214;6.768;2023-05-25T06:54:29;102357.19;;;11.71;84.99
4972;BME280;2501;51.214;6.768;2023-05-25T06:56:57;102362.03;;;12.22;84.71
4972;BME280;2501;51.214;6.768;2023-05-25T06:59:25;102355.72;;;12.51;82.90
4972;BME280;2501;51.214;6.768;2023-05-25T07:01:54;102348.44;;;12.77;81.54
4972;BME280;2501;51.214;6.768;2023-05-25T07:04:23;102360.88;;;12.47;81.27
4972;BME280;2501;51.214;6.768;2023-05-25T07:06:52;102343.66;;;12.60;80.93
4972;BME280;2501;51.214;6.768;2023-05-25T07:09:21;102351.81;;;12.72;79.67
4972;BME280;2501;51.214;6.768;2023-05-25T07:11:52;102354.72;;;12.84;79.46
4972;BME280;2501;51.214;6.768;2023-05-25T07:14:20;102359.63;;;12.69;79.05
4972;BME280;2501;51.214;6.768;2023-05-25T07:16:49;102355.84;;;12.95;79.06
4972;BME280;2501;51.214;6.768;2023-05-25T07:19:17;102362.50;;;12.78;78.76
4972;BME280;2501;51.214;6.768;2023-05-25T07:21:46;102358.34;;;12.89;78.21
4972;BME280;2501;51.214;6.768;2023-05-25T07:24:14;102351.38;;;12.91;78.02
4972;BME280;2501;51.214;6.768;2023-05-25T07:26:43;102357.94;;;13.10;77.71
4972;BME280;2501;51.214;6.768;2023-05-25T07:29:15;102358.88;;;13.13;78.14
4972;BME280;2501;51.214;6.768;2023-05-25T07:31:43;102362.69;;;13.26;77.43
4972;BME280;2501;51.214;6.768;2023-05-25T07:34:12;102365.66;;;13.43;76.43
4972;BME280;2501;51.214;6.768;2023-05-25T07:36:40;102364.16;;;13.55;75.81
4972;BME280;2501;51.214;6.768;2023-05-25T07:39:09;102364.41;;;13.69;75.64
4972;BME280;2501;51.214;6.768;2023-05-25T07:41:37;102369.75;;;13.74;74.46
4972;BME280;2501;51.214;6.768;2023-05-25T07:44:05;102365.50;;;14.32;72.80
4972;BME280;2501;51.214;6.768;2023-05-25T07:46:36;102363.84;;;13.87;72.40
4972;BME280;2501;51.214;6.768;2023-05-25T07:49:05;102366.56;;;13.91;72.35
4972;BME280;2501;51.214;6.768;2023-05-25T07:51:37;102365.59;;;13.86;72.75
4972;BME280;2501;51.214;6.768;2023-05-25T07:54:06;102369.09;;;13.85;72.54
4972;BME280;2501;51.214;6.768;2023-05-25T07:56:34;102362.56;;;13.64;72.20
4972;BME280;2501;51.214;6.768;2023-05-25T07:59:03;102366.47;;;13.84;72.13
4972;BME280;2501;51.214;6.768;2023-05-25T08:01:31;102371.88;;;14.43;69.74
4972;BME280;2501;51.214;6.768;2023-05-25T08:04:03;102368.69;;;14.12;70.03
4972;BME280;2501;51.214;6.768;2023-05-25T08:06:32;102374.22;;;14.27;69.54
4972;BME280;2501;51.214;6.768;2023-05-25T08:09:02;102376.22;;;14.41;68.88
4972;BME280;2501;51.214;6.768;2023-05-25T08:11:32;102384.94;;;14.35;68.75
4972;BME280;2501;51.214;6.768;2023-05-25T08:14:00;102379.19;;;14.09;69.18
4972;BME280;2501;51.214;6.768;2023-05-25T08:16:29;102379.66;;;13.84;69.66
4972;BME280;2501;51.214;6.768;2023-05-25T08:18:58;102374.88;;;14.13;68.49
4972;BME280;2501;51.214;6.768;2023-05-25T08:21:29;102375.47;;;14.48;67.20
4972;BME280;2501;51.214;6.768;2023-05-25T08:23:59;102374.13;;;14.76;66.20
4972;BME280;2501;51.214;6.768;2023-05-25T08:26:28;102364.50;;;14.79;66.73
4972;BME280;2501;51.214;6.768;2023-05-25T08:28:57;102369.97;;;14.34;67.17
4972;BME280;2501;51.214;6.768;2023-05-25T08:31:26;102368.66;;;14.62;66.38
4972;BME280;2501;51.214;6.768;2023-05-25T08:33:56;102372.34;;;14.19;67.73
4972;BME280;2501;51.214;6.768;2023-05-25T08:36:25;102376.94;;;14.31;67.80
4972;BME280;2501;51.214;6.768;2023-05-25T08:38:57;102378.25;;;14.06;68.09
4972;BME280;2501;51.214;6.768;2023-05-25T08:41:25;102379.38;;;14.18;67.80
4972;BME280;2501;51.214;6.768;2023-05-25T08:43:54;102383.72;;;14.15;67.82
4972;BME280;2501;51.214;6.768;2023-05-25T08:46:28;102388.00;;;14.10;68.00
4972;BME280;2501;51.214;6.768;2023-05-25T08:49:03;102378.38;;;14.12;67.29
4972;BME280;2501;51.214;6.768;2023-05-25T08:51:35;102381.53;;;13.92;67.13
4972;BME280;2501;51.214;6.768;2023-05-25T08:54:09;102374.88;;;14.13;67.50
4972;BME280;2501;51.214;6.768;2023-05-25T08:56:43;102379.16;;;14.08;67.65
4972;BME280;2501;51.214;6.768;2023-05-25T08:59:27;102374.41;;;14.40;66.80
4972;BME280;2501;51.214;6.768;2023-05-25T09:02:03;102376.16;;;14.38;66.14
4972;BME280;2501;51.214;6.768;2023-05-25T09:04:39;102383.72;;;14.68;65.11
4972;BME280;2501;51.214;6.768;2023-05-25T09:07:07;102387.38;;;14.24;65.72
4972;BME280;2501;51.214;6.768;2023-05-25T09:09:41;102383.19;;;14.36;65.40
4972;BME280;2501;51.214;6.768;2023-05-25T09:12:11;102380.91;;;14.58;64.77
4972;BME280;2501;51.214;6.768;2023-05-25T09:14:40;102389.09;;;14.75;64.10
4972;BME280;2501;51.214;6.768;2023-05-25T09:17:11;102381.91;;;14.65;63.74
4972;BME280;2501;51.214;6.768;2023-05-25T09:19:39;102385.09;;;15.03;63.52
4972;BME280;2501;51.214;6.768;2023-05-25T09:22:08;102382.09;;;14.79;63.35
4972;BME280;2501;51.214;6.768;2023-05-25T09:24:40;102376.44;;;15.15;63.28
4972;BME280;2501;51.214;6.768;2023-05-25T09:27:10;102379.38;;;15.38;60.95
4972;BME280;2501;51.214;6.768;2023-05-25T09:29:39;102377.28;;;15.12;62.18
4972;BME280;2501;51.214;6.768;2023-05-25T09:32:08;102386.25;;;15.25;62.35
4972;BME280;2501;51.214;6.768;2023-05-25T09:34:37;102376.41;;;15.13;62.67
4972;BME280;2501;51.214;6.768;2023-05-25T09:37:10;102391.41;;;15.14;61.89
4972;BME280;2501;51.214;6.768;2023-05-25T09:39:42;102386.72;;;14.93;61.40
4972;BME280;2501;51.214;6.768;2023-05-25T09:42:12;102377.84;;;14.90;60.51
4972;BME280;2501;51.214;6.768;2023-05-25T09:44:41;102383.72;;;14.68;63.13
4972;BME280;2501;51.214;6.768;2023-05-25T09:47:09;102384.47;;;15.22;62.34
4972;BME280;2501;51.214;6.768;2023-05-25T09:49:39;102383.94;;;15.51;60.19
4972;BME280;2501;51.214;6.768;2023-05-25T09:52:10;102389.69;;;15.18;60.99
4972;BME280;2501;51.214;6.768;2023-05-25T09:54:43;102392.56;;;14.73;61.94
4972;BME280;2501;51.214;6.768;2023-05-25T09:57:11;102385.72;;;15.52;60.49
4972;BME280;2501;51.214;6.768;2023-05-25T09:59:40;102392.44;;;15.27;60.61
4972;BME280;2501;51.214;6.768;2023-05-25T10:02:10;102388.91;;;15.23;60.64
4972;BME280;2501;51.214;6.768;2023-05-25T10:04:39;102397.25;;;14.89;61.96
4972;BME280;2501;51.214;6.768;2023-05-25T10:07:07;102398.78;;;14.76;61.93
4972;BME280;2501;51.214;6.768;2023-05-25T10:09:38;102404.38;;;14.96;62.05
4972;BME280;2501;51.214;6.768;2023-05-25T10:12:10;102394.81;;;15.07;61.38
4972;BME280;2501;51.214;6.768;2023-05-25T10:14:41;102394.25;;;15.29;60.07
4972;BME280;2501;51.214;6.768;2023-05-25T10:17:12;102394.78;;;15.72;58.78
4972;BME280;2501;51.214;6.768;2023-05-25T10:19:49;102392.97;;;15.68;58.92
4972;BME280;2501;51.214;6.768;2023-05-25T10:22:32;102405.41;;;15.77;58.57
4972;BME280;2501;51.214;6.768;2023-05-25T10:25:07;102391.97;;;15.60;58.88
4972;BME280;2501;51.214;6.768;2023-05-25T10:27:44;102412.53;;;15.82;58.87
4972;BME280;2501;51.214;6.768;2023-05-25T10:30:14;102403.44;;;15.57;59.64
4972;BME280;2501;51.214;6.768;2023-05-25T10:32:43;102410.81;;;15.16;60.21
4972;BME280;2501;51.214;6.768;2023-05-25T10:35:14;102413.06;;;15.54;59.23
4972;BME280;2501;51.214;6.768;2023-05-25T10:37:43;102396.66;;;15.82;58.25
4972;BME280;2501;51.214;6.768;2023-05-25T10:40:13;102405.03;;;16.31;57.40
4972;BME280;2501;51.214;6.768;2023-05-25T10:42:45;102409.94;;;15.88;58.78
4972;BME280;2501;51.214;6.768;2023-05-25T10:45:14;102424.69;;;15.65;60.80
4972;BME280;2501;51.214;6.768;2023-05-25T10:47:44;102418.44;;;15.60;60.35
4972;BME280;2501;51.214;6.768;2023-05-25T10:50:19;102408.34;;;15.30;60.98
4972;BME280;2501;51.214;6.768;2023-05-25T10:52:59;102407.25;;;15.13;60.76
4972;BME280;2501;51.214;6.768;2023-05-25T10:55:28;102410.50;;;14.93;61.39
4972;BME280;2501;51.214;6.768;2023-05-25T10:58:13;102407.19;;;15.10;61.90
4972;BME280;2501;51.214;6.768;2023-05-25T11:00:42;102403.63;;;15.05;61.75
4972;BME280;2501;51.214;6.768;2023-05-25T11:03:10;102422.31;;;15.18;60.80
4972;BME280;2501;51.214;6.768;2023-05-25T11:05:39;102407.50;;;15.32;60.70
4972;BME280;2501;51.214;6.768;2023-05-25T11:08:08;102412.91;;;15.43;60.42
4972;BME280;2501;51.214;6.768;2023-05-25T11:10:59;102417.06;;;15.21;61.22
4972;BME280;2501;51.214;6.768;2023-05-25T11:13:37;102410.06;;;15.26;60.42
4972;BME280;2501;51.214;6.768;2023-05-25T11:16:16;102410.06;;;15.28;61.18
4972;BME280;2501;51.214;6.768;2023-05-25T11:18:48;102421.63;;;15.35;61.38
4972;BME280;2501;51.214;6.768;2023-05-25T11:21:22;102419.00;;;15.36;61.65
4972;BME280;2501;51.214;6.768;2023-05-25T11:23:52;102413.22;;;14.98;62.63
4972;BME280;2501;51.214;6.768;2023-05-25T11:26:21;102417.22;;;15.33;62.42
4972;BME280;2501;51.214;6.768;2023-05-25T11:28:53;102423.28;;;15.26;61.47
4972;BME280;2501;51.214;6.768;2023-05-25T11:31:27;102416.22;;;15.27;60.75
4972;BME280;2501;51.214;6.768;2023-05-25T11:33:57;102402.25;;;15.34;60.83
4972;BME280;2501;51.214;6.768;2023-05-25T11:36:27;102412.44;;;15.07;60.93
4972;BME280;2501;51.214;6.768;2023-05-25T11:38:59;102411.72;;;15.18;60.52
4972;BME280;2501;51.214;6.768;2023-05-25T11:41:29;102412.84;;;15.36;60.41
4972;BME280;2501;51.214;6.768;2023-05-25T11:44:05;102401.69;;;15.58;59.89
4972;BME280;2501;51.214;6.768;2023-05-25T11:46:34;102395.50;;;15.59;59.59
4972;BME280;2501;51.214;6.768;2023-05-25T11:49:02;102398.53;;;15.94;58.94
4972;BME280;2501;51.214;6.768;2023-05-25T11:51:31;102385.91;;;15.67;59.81
4972;BME280;2501;51.214;6.768;2023-05-25T11:54:00;102401.59;;;15.53;59.13
4972;BME280;2501;51.214;6.768;2023-05-25T11:56:31;102391.22;;;15.69;59.67
4972;BME280;2501;51.214;6.768;2023-05-25T11:59:00;102385.13;;;15.79;58.72
4972;BME280;2501;51.214;6.768;2023-05-25T12:01:31;102383.81;;;16.23;58.06
4972;BME280;2501;51.214;6.768;2023-05-25T12:04:07;102393.06;;;15.08;60.40
4972;BME280;2501;51.214;6.768;2023-05-25T12:06:35;102394.59;;;15.55;60.04
4972;BME280;2501;51.214;6.768;2023-05-25T12:09:10;102386.88;;;15.77;59.38
4972;BME280;2501;51.214;6.768;2023-05-25T12:11:39;102382.50;;;15.76;59.23
4972;BME280;2501;51.214;6.768;2023-05-25T12:14:10;102388.94;;;16.04;57.81
4972;BME280;2501;51.214;6.768;2023-05-25T12:16:41;102390.28;;;15.63;58.60
4972;BME280;2501;51.214;6.768;2023-05-25T12:19:10;102394.38;;;15.39;58.73
4972;BME280;2501;51.214;6.768;2023-05-25T12:21:39;102398.78;;;15.40;59.03
4972;BME280;2501;51.214;6.768;2023-05-25T12:24:09;102400.94;;;15.70;58.33
4972;BME280;2501;51.214;6.768;2023-05-25T12:26:48;102386.75;;;15.63;58.52
4972;BME280;2501;51.214;6.768;2023-05-25T12:29:22;102385.53;;;15.37;58.34
4972;BME280;2501;51.214;6.768;2023-05-25T12:32:00;102375.41;;;15.73;58.24
4972;BME280;2501;51.214;6.768;2023-05-25T12:34:29;102377.03;;;15.63;59.10
4972;BME280;2501;51.214;6.768;2023-05-25T12:36:59;102377.16;;;16.73;55.62
4972;BME280;2501;51.214;6.768;2023-05-25T12:39:32;102372.03;;;17.03;54.87
4972;BME280;2501;51.214;6.768;2023-05-25T12:42:04;102358.81;;;17.11;54.68
4972;BME280;2501;51.214;6.768;2023-05-25T12:44:35;102360.59;;;17.13;54.74
4972;BME280;2501;51.214;6.768;2023-05-25T12:47:14;102364.09;;;17.09;55.04
4972;BME280;2501;51.214;6.768;2023-05-25T12:49:45;102369.34;;;16.98;55.02
4972;BME280;2501;51.214;6.768;2023-05-25T12:52:31;102364.84;;;16.79;55.21
4972;BME280;2501;51.214;6.768;2023-05-25T12:55:18;102368.53;;;17.16;54.22
4972;BME280;2501;51.214;6.768;2023-05-25T12:57:46;102362.25;;;16.91;54.69
4972;BME280;2501;51.214;6.768;2023-05-25T13:00:18;102362.25;;;16.91;54.71
4972;BME280;2501;51.214;6.768;2023-05-25T13:02:49;102368.97;;;16.44;56.28
4972;BME280;2501;51.214;6.768;2023-05-25T13:05:19;102356.91;;;16.85;55.07
4972;BME280;2501;51.214;6.768;2023-05-25T13:07:48;102359.53;;;16.84;54.77
4972;BME280;2501;51.214;6.768;2023-05-25T13:10:17;102356.06;;;16.92;54.53
4972;BME280;2501;51.214;6.768;2023-05-25T13:12:47;102362.31;;;17.05;54.94
4972;BME280;2501;51.214;6.768;2023-05-25T13:15:18;102358.03;;;17.40;52.49
4972;BME280;2501;51.214;6.768;2023-05-25T13:17:50;102349.03;;;16.94;52.79
4972;BME280;2501;51.214;6.768;2023-05-25T13:20:22;102342.75;;;16.85;54.17
4972;BME280;2501;51.214;6.768;2023-05-25T13:22:52;102352.88;;;18.06;51.53
4972;BME280;2501;51.214;6.768;2023-05-25T13:25:20;102339.63;;;17.98;51.11
4972;BME280;2501;51.214;6.768;2023-05-25T13:27:51;102342.25;;;18.65;49.84
4972;BME280;2501;51.214;6.768;2023-05-25T13:30:22;102344.91;;;18.65;49.16